Time;durP1;ratioP1;P1;durP2;ratioP2;P2;SDS_P1;SDS_P2;PMS_P1;PMS_P2;Temp;Humidity;BMP_temperature;BMP_pressure;BME280_temperature;BME280_humidity;BME280_pressure;Samples;Min_cycle;Max_cycle;Signal;HPM_P1;HPM_P2
2022/09/10 00:02:17;;;;;;;2.45;1.30;;;;;;;16.81;83.26;100818.09;5022764;28;20379;-79
2022/09/10 00:04:43;;;;;;;1.85;1.50;;;;;;;16.80;83.27;100816.38;5038077;28;20036;-78
2022/09/10 00:07:08;;;;;;;1.48;1.20;;;;;;;16.82;83.09;100816.28;5019454;28;20071;-78
2022/09/10 00:09:34;;;;;;;1.20;1.10;;;;;;;16.80;83.04;100834.88;5034737;28;20351;-79
2022/09/10 00:11:59;;;;;;;2.08;1.50;;;;;;;16.80;82.91;100831.41;5018906;28;20045;-78
2022/09/10 00:14:25;;;;;;;1.75;0.95;;;;;;;16.79;82.68;100832.34;5003049;28;20302;-79
2022/09/10 00:16:50;;;;;;;1.15;0.88;;;;;;;16.79;82.40;100832.34;5001855;28;20021;-79
2022/09/10 00:19:16;;;;;;;2.63;1.20;;;;;;;16.79;82.80;100820.00;4986518;28;20068;-78
2022/09/10 00:21:45;;;;;;;3.35;1.20;;;;;;;16.78;82.66;100820.09;5035741;28;20071;-78
2022/09/10 00:24:11;;;;;;;;;;;;;;;16.78;82.70;100817.44;5034799;28;20044;-78
2022/09/10 00:26:38;;;;;;;1.70;1.00;;;;;;;16.77;83.13;100808.66;5048201;28;20172;-78
2022/09/10 00:29:06;;;;;;;0.75;0.70;;;;;;;16.77;83.29;100811.31;5035986;28;20034;-79
2022/09/10 00:31:33;;;;;;;1.25;0.90;;;;;;;16.76;83.40;100809.59;5040957;28;20032;-79
2022/09/10 00:34:00;;;;;;;2.38;0.90;;;;;;;16.76;83.39;100814.06;5032314;28;20039;-78
2022/09/10 00:36:28;;;;;;;0.90;0.80;;;;;;;16.75;83.46;100813.19;5053393;28;20071;-79
2022/09/10 00:38:57;;;;;;;0.77;0.77;;;;;;;16.74;83.27;100814.16;5036330;28;20037;-79
2022/09/10 00:41:23;;;;;;;;;;;;;;;16.73;83.54;100812.44;5018596;28;20100;-79
2022/09/10 00:43:55;;;;;;;3.90;0.75;;;;;;;16.72;83.47;100805.47;5028505;28;20263;-79
2022/09/10 00:46:44;;;;;;;0.90;0.90;;;;;;;16.72;83.22;100817.84;5037431;28;20039;-79
2022/09/10 00:49:19;;;;;;;3.42;0.90;;;;;;;16.70;83.03;100813.50;5023482;28;20232;-79
2022/09/10 00:51:46;;;;;;;2.05;1.10;;;;;;;16.69;82.91;100806.50;5030726;28;20348;-78
2022/09/10 00:54:12;;;;;;;3.72;1.30;;;;;;;16.70;82.98;100804.75;5032176;28;20052;-79
2022/09/10 00:56:38;;;;;;;1.77;1.10;;;;;;;16.71;83.29;100801.13;5032315;28;20359;-79
2022/09/10 00:59:08;;;;;;;1.98;1.08;;;;;;;16.69;83.09;100795.94;4999904;28;20049;-79
2022/09/10 01:01:36;;;;;;;1.75;0.90;;;;;;;16.69;83.24;100803.03;5018164;28;20037;-79
2022/09/10 01:04:03;;;;;;;1.55;1.25;;;;;;;16.69;83.41;100800.38;5002473;28;20065;-79
2022/09/10 01:06:29;;;;;;;2.33;1.20;;;;;;;16.68;83.65;100796.91;5022010;28;20060;-79
2022/09/10 01:08:54;;;;;;;2.00;1.02;;;;;;;16.66;83.50;100796.16;5008726;28;20037;-79
2022/09/10 01:11:22;;;;;;;1.48;1.13;;;;;;;16.65;83.19;100802.38;5014076;28;20372;-79
2022/09/10 01:14:08;;;;;;;2.25;1.10;;;;;;;16.66;83.21;100797.94;5037629;28;20025;-79
2022/09/10 01:16:40;;;;;;;1.33;1.08;;;;;;;16.67;82.94;100799.66;5024919;28;20044;-79
2022/09/10 01:19:40;;;;;;;1.10;1.00;;;;;;;16.66;83.30;100796.16;5053295;28;20033;-79
2022/09/10 01:22:24;;;;;;;1.65;1.35;;;;;;;16.67;83.35;100797.00;5027700;28;20074;-79
2022/09/10 01:25:21;;;;;;;2.63;1.60;;;;;;;16.66;83.39;100801.44;5035710;28;20040;-78
2022/09/10 01:27:53;;;;;;;1.90;1.15;;;;;;;16.65;83.62;100805.03;5036942;28;20037;-79
2022/09/10 01:30:40;;;;;;;1.80;1.20;;;;;;;16.65;83.53;100789.16;5033111;28;20235;-79
2022/09/10 01:33:31;;;;;;;1.73;1.23;;;;;;;16.65;83.63;100788.34;5019796;28;20340;-78
2022/09/10 01:36:00;;;;;;;1.65;1.30;;;;;;;16.64;83.52;100786.63;5017901;28;20101;-79
2022/09/10 01:38:30;;;;;;;1.52;1.10;;;;;;;16.64;83.49;100794.56;5031310;28;20025;-78
2022/09/10 01:40:57;;;;;;;1.30;1.17;;;;;;;16.63;83.56;100793.72;5037237;28;20029;-79
2022/09/10 01:43:23;;;;;;;1.48;0.98;;;;;;;16.63;83.20;100795.53;5035747;28;20041;-79
2022/09/10 01:46:05;;;;;;;1.45;1.00;;;;;;;16.63;83.39;100798.16;5051540;28;20088;-79
2022/09/10 01:48:55;;;;;;;2.05;1.02;;;;;;;16.62;83.60;100799.94;5022695;28;20029;-78
2022/09/10 01:51:51;;;;;;;2.83;0.90;;;;;;;16.63;83.05;100798.16;5050313;28;20033;-78
2022/09/10 01:54:38;;;;;;;1.05;0.80;;;;;;;16.63;82.83;100791.06;5035839;28;20056;-78
2022/09/10 01:57:33;;;;;;;1.05;0.93;;;;;;;16.61;82.87;100787.69;5040291;28;20307;-79
2022/09/10 02:00:09;;;;;;;1.00;0.80;;;;;;;16.62;83.12;100789.38;5025992;28;20052;-79
2022/09/10 02:03:04;;;;;;;2.10;0.73;;;;;;;16.62;83.06;100792.00;5057684;28;20074;-78
2022/09/10 02:05:34;;;;;;;2.05;0.93;;;;;;;16.62;83.01;100788.53;5045864;28;20320;-79
2022/09/10 02:08:09;;;;;;;1.20;0.80;;;;;;;16.62;82.74;100793.81;5019648;28;20084;-79
2022/09/10 02:10:58;;;;;;;3.35;1.00;;;;;;;16.62;82.88;100791.16;5040366;28;20056;-79
2022/09/10 02:13:25;;;;;;;1.25;0.98;;;;;;;16.63;82.70;100788.44;5039903;28;20041;-78
2022/09/10 02:15:51;;;;;;;0.88;0.85;;;;;;;16.62;82.79;100788.53;5007691;28;20295;-79
2022/09/10 02:18:22;;;;;;;1.58;1.10;;;;;;;16.63;82.84;100793.72;5018540;28;20336;-79
2022/09/10 02:20:50;;;;;;;1.88;1.40;;;;;;;16.63;82.97;100791.06;5026195;28;20061;-79
2022/09/10 02:23:20;;;;;;;1.70;1.60;;;;;;;16.63;83.09;100793.72;5038223;28;20272;-78
2022/09/10 02:25:47;;;;;;;1.95;1.58;;;;;;;16.64;83.22;100792.75;5020768;28;20025;-79
2022/09/10 02:28:12;;;;;;;4.28;1.60;;;;;;;16.63;82.92;100785.78;5011475;28;20042;-79
2022/09/10 02:30:38;;;;;;;2.78;1.50;;;;;;;16.64;82.92;100778.69;5004937;28;20351;-78
2022/09/10 02:33:03;;;;;;;1.65;1.55;;;;;;;16.64;82.79;100781.34;5018700;28;20120;-79
2022/09/10 02:35:30;;;;;;;1.90;1.15;;;;;;;16.64;82.58;100782.19;4998281;28;20045;-78
2022/09/10 02:37:56;;;;;;;2.10;1.30;;;;;;;16.65;82.78;100772.47;5036834;28;20037;-79
2022/09/10 02:40:21;;;;;;;1.55;1.40;;;;;;;16.64;82.77;100779.53;5003816;28;20033;-78
2022/09/10 02:42:47;;;;;;;2.13;1.70;;;;;;;16.65;82.71;100772.47;5044297;28;20036;-78
2022/09/10 02:45:13;;;;;;;1.98;1.52;;;;;;;16.66;83.10;100772.38;5050299;28;20026;-78
2022/09/10 02:47:39;;;;;;;2.20;1.27;;;;;;;16.66;83.04;100774.16;5022635;28;20045;-78
2022/09/10 02:50:05;;;;;;;9.32;1.73;;;;;;;16.66;83.42;100774.16;5034525;28;20100;-78
2022/09/10 02:52:32;;;;;;;1.67;1.17;;;;;;;16.66;83.55;100782.94;5047528;28;20231;-78
2022/09/10 02:54:57;;;;;;;1.70;1.23;;;;;;;16.66;83.39;100784.72;5019041;28;20028;-78
2022/09/10 02:57:23;;;;;;;6.85;1.48;;;;;;;16.66;83.51;100780.31;4999958;28;20360;-79
2022/09/10 02:59:48;;;;;;;1.75;1.65;;;;;;;16.66;83.70;100776.78;5043331;28;20068;-78
2022/09/10 03:02:14;;;;;;;1.52;1.42;;;;;;;16.66;83.49;100780.31;5020638;28;20036;-78
2022/09/10 03:04:39;;;;;;;2.05;1.67;;;;;;;16.66;83.47;100782.06;5023133;28;20029;-77
2022/09/10 03:07:05;;;;;;;1.58;1.48;;;;;;;16.65;83.23;100783.88;5014077;28;20067;-78
2022/09/10 03:09:30;;;;;;;1.85;1.70;;;;;;;16.65;83.22;100773.31;5006246;28;20035;-78
2022/09/10 03:11:55;;;;;;;1.92;1.83;;;;;;;16.65;83.33;100769.81;5022498;28;20319;-77
2022/09/10 03:14:23;;;;;;;2.25;2.05;;;;;;;16.65;83.24;100773.31;5022523;28;20375;-78
2022/09/10 03:16:49;;;;;;;1.88;1.70;;;;;;;16.65;83.23;100767.19;5022309;28;20056;-78
2022/09/10 03:19:15;;;;;;;2.88;1.85;;;;;;;16.66;83.01;100760.94;5038429;28;20024;-78
2022/09/10 03:21:41;;;;;;;3.70;2.30;;;;;;;16.66;83.39;100756.50;5057011;28;20041;-78
2022/09/10 03:24:07;;;;;;;4.10;2.25;;;;;;;16.65;83.47;100760.09;5056502;28;20032;-77
2022/09/10 03:26:32;;;;;;;2.80;2.10;;;;;;;16.65;83.70;100762.72;5038697;28;20039;-78
2022/09/10 03:28:58;;;;;;;2.20;2.00;;;;;;;16.66;83.69;100767.09;5022194;28;20274;-78
2022/09/10 03:31:23;;;;;;;4.15;2.20;;;;;;;16.66;83.71;100755.63;5038735;28;20236;-78
2022/09/10 03:33:49;;;;;;;2.17;1.90;;;;;;;16.66;83.77;100760.94;5038461;28;20031;-78
2022/09/10 03:36:17;;;;;;;2.42;1.90;;;;;;;16.66;83.59;100763.56;5056769;28;20032;-78
2022/09/10 03:38:43;;;;;;;1.60;1.50;;;;;;;16.65;83.43;100760.09;5025622;28;20052;-78
2022/09/10 03:41:09;;;;;;;1.95;1.75;;;;;;;16.66;83.05;100768.84;5047664;28;20558;-77
2022/09/10 03:43:34;;;;;;;1.50;1.40;;;;;;;16.64;82.59;100768.97;5018960;28;20045;-78
2022/09/10 03:46:01;;;;;;;2.38;1.95;;;;;;;16.64;82.45;100776.03;5018253;28;20285;-78
2022/09/10 03:48:27;;;;;;;2.67;1.63;;;;;;;16.63;82.61;100772.56;4992915;28;20029;-77
2022/09/10 03:50:53;;;;;;;1.42;1.30;;;;;;;16.64;82.56;100768.13;5042385;28;20028;-78
2022/09/10 03:53:19;;;;;;;2.22;1.35;;;;;;;16.63;82.37;100762.00;5047038;28;20025;-78
2022/09/10 03:55:46;;;;;;;3.78;1.35;;;;;;;16.64;82.47;100766.31;5022059;28;20087;-78
2022/09/10 03:58:12;;;;;;;2.83;1.30;;;;;;;16.64;82.18;100754.91;5017147;28;20358;-78
2022/09/10 04:00:37;;;;;;;1.63;1.20;;;;;;;16.64;82.52;100766.31;5037603;28;20029;-78
2022/09/10 04:03:04;;;;;;;2.65;1.20;;;;;;;16.65;82.01;100761.88;5030449;28;20033;-78
2022/09/10 04:05:31;;;;;;;2.55;1.25;;;;;;;16.64;82.16;100763.66;5021718;28;20039;-78
2022/09/10 04:07:57;;;;;;;2.75;1.30;;;;;;;16.65;81.92;100765.38;4999378;28;20037;-78
2022/09/10 04:10:24;;;;;;;1.60;1.30;;;;;;;16.64;81.84;100768.97;5038937;28;20136;-78
2022/09/10 04:12:52;;;;;;;2.65;1.50;;;;;;;16.64;82.27;100768.97;5027044;28;20041;-78
2022/09/10 04:15:18;;;;;;;1.10;1.00;;;;;;;16.64;82.14;100768.97;5036254;28;20340;-78
2022/09/10 04:17:45;;;;;;;1.33;1.13;;;;;;;16.65;82.32;100772.47;5025298;28;20065;-78
2022/09/10 04:20:10;;;;;;;2.65;1.10;;;;;;;16.66;82.53;100772.38;5043274;28;20120;-78
2022/09/10 04:22:36;;;;;;;1.50;1.08;;;;;;;16.66;82.51;100774.16;5019260;28;20072;-78
2022/09/10 04:25:02;;;;;;;0.95;0.90;;;;;;;16.67;82.62;100778.50;5021174;28;20033;-78
2022/09/10 04:27:27;;;;;;;1.65;1.00;;;;;;;16.65;82.70;100783.88;5038584;28;20308;-78
2022/09/10 04:29:52;;;;;;;1.50;1.30;;;;;;;16.66;82.89;100784.72;5001341;28;20033;-77
2022/09/10 04:32:18;;;;;;;2.78;0.90;;;;;;;16.66;83.05;100784.72;5014443;28;20030;-78
2022/09/10 04:34:44;;;;;;;2.47;1.10;;;;;;;16.66;83.15;100782.94;5008753;28;20078;-78
2022/09/10 04:37:10;;;;;;;1.50;1.30;;;;;;;16.66;83.06;100780.31;5019186;28;20295;-77
2022/09/10 04:39:35;;;;;;;1.55;1.00;;;;;;;16.66;82.90;100784.72;5022112;28;20273;-78
2022/09/10 04:42:02;;;;;;;1.70;0.85;;;;;;;16.67;83.17;100783.78;5036602;28;20091;-78
2022/09/10 04:44:28;;;;;;;2.65;1.30;;;;;;;16.66;82.92;100780.31;5036819;28;20033;-78
2022/09/10 04:46:54;;;;;;;2.38;1.05;;;;;;;16.66;83.14;100780.31;5004342;28;20028;-78
2022/09/10 04:49:19;;;;;;;1.95;1.33;;;;;;;16.67;83.07;100794.38;5019964;28;20043;-78
2022/09/10 04:51:45;;;;;;;4.20;1.35;;;;;;;16.66;83.13;100785.59;5027460;28;20037;-78
2022/09/10 04:54:13;;;;;;;2.65;1.17;;;;;;;16.67;83.35;100787.25;5017568;28;20033;-77
2022/09/10 04:56:39;;;;;;;3.28;1.25;;;;;;;16.67;83.34;100795.19;4997840;28;20033;-78
2022/09/10 04:59:04;;;;;;;2.17;0.90;;;;;;;16.66;83.55;100788.22;4994756;28;20031;-78
2022/09/10 05:01:30;;;;;;;1.15;0.80;;;;;;;16.67;83.56;100791.72;5030800;28;20025;-78
2022/09/10 05:03:55;;;;;;;3.30;1.08;;;;;;;16.67;83.58;100797.84;5013888;28;20104;-78
2022/09/10 05:06:22;;;;;;;1.35;1.10;;;;;;;16.67;83.57;100797.00;5001480;28;20256;-78
2022/09/10 05:08:47;;;;;;;1.90;1.15;;;;;;;16.68;83.71;100801.31;4993620;28;20060;-77
2022/09/10 05:11:13;;;;;;;1.08;0.98;;;;;;;16.66;83.86;100796.16;4996830;28;20029;-78
2022/09/10 05:13:38;;;;;;;2.28;1.20;;;;;;;16.68;83.73;100810.13;5014125;28;20044;-78
2022/09/10 05:16:04;;;;;;;1.90;1.13;;;;;;;16.67;84.12;100802.28;5006915;28;20038;-77
2022/09/10 05:18:29;;;;;;;3.13;1.10;;;;;;;16.66;83.77;100796.16;5015263;28;20033;-78
2022/09/10 05:20:54;;;;;;;4.13;1.10;;;;;;;16.66;83.90;100801.44;5015349;28;20045;-78
2022/09/10 05:23:20;;;;;;;1.95;1.17;;;;;;;16.67;84.07;100803.13;5015935;28;20338;-78
2022/09/10 05:25:47;;;;;;;1.63;1.30;;;;;;;16.66;84.32;100809.38;5032853;28;20412;-78
2022/09/10 05:28:14;;;;;;;2.60;1.40;;;;;;;16.66;84.71;100812.03;5015214;28;20041;-78
2022/09/10 05:30:40;;;;;;;2.17;1.30;;;;;;;16.67;84.96;100815.50;5019469;28;20032;-78
2022/09/10 05:33:05;;;;;;;2.70;1.38;;;;;;;16.66;84.71;100816.44;5002440;28;20834;-78
2022/09/10 05:35:32;;;;;;;1.38;1.20;;;;;;;16.65;85.02;100812.97;5019251;28;20405;-78
2022/09/10 05:37:59;;;;;;;6.38;1.50;;;;;;;16.65;85.19;100806.84;5018658;28;20044;-78
2022/09/10 05:40:25;;;;;;;2.33;1.38;;;;;;;16.65;85.21;100812.13;5021200;28;20446;-78
2022/09/10 05:42:52;;;;;;;3.40;1.85;;;;;;;16.63;85.02;100814.88;5018370;28;20037;-78
2022/09/10 05:45:19;;;;;;;3.92;1.50;;;;;;;16.64;85.35;100821.00;5018678;28;20033;-78
2022/09/10 05:47:45;;;;;;;1.73;1.30;;;;;;;16.63;85.43;100820.16;5002016;28;20029;-77
2022/09/10 05:50:10;;;;;;;1.65;1.30;;;;;;;16.64;85.35;100823.63;5018045;28;20104;-77
2022/09/10 05:52:36;;;;;;;2.92;1.58;;;;;;;16.64;85.46;100824.47;5035592;28;20116;-77
2022/09/10 05:55:02;;;;;;;1.10;1.10;;;;;;;16.63;85.32;100830.72;4998411;28;20152;-77
2022/09/10 05:57:27;;;;;;;2.72;1.23;;;;;;;16.64;85.04;100839.50;5000369;28;20041;-77
2022/09/10 05:59:53;;;;;;;1.30;1.20;;;;;;;16.62;84.91;100826.38;5038477;28;20363;-77
2022/09/10 06:02:19;;;;;;;1.77;1.42;;;;;;;16.63;85.05;100841.31;4995320;28;20046;-77
2022/09/10 06:04:44;;;;;;;1.45;1.35;;;;;;;16.63;84.63;100843.13;4998702;28;20369;-77
2022/09/10 06:07:10;;;;;;;1.30;1.20;;;;;;;16.63;84.50;100838.66;5040142;28;20104;-77
2022/09/10 06:09:35;;;;;;;2.47;1.38;;;;;;;16.63;84.33;100846.59;5000950;28;20589;-77
2022/09/10 06:12:01;;;;;;;1.50;1.40;;;;;;;16.64;84.23;100839.50;5017237;28;20033;-77
2022/09/10 06:14:27;;;;;;;1.13;1.08;;;;;;;16.64;83.80;100843.00;5011301;28;20044;-77
2022/09/10 06:16:54;;;;;;;1.55;1.45;;;;;;;16.64;83.96;100837.69;4984585;28;20035;-77
2022/09/10 06:19:20;;;;;;;1.48;1.38;;;;;;;16.65;83.92;100843.84;5028680;28;20127;-77
2022/09/10 06:21:45;;;;;;;1.40;1.30;;;;;;;16.65;83.27;100844.69;4980631;28;20340;-77
2022/09/10 06:24:14;;;;;;;3.22;1.38;;;;;;;16.67;83.64;100849.88;4967618;28;20083;-77
2022/09/10 06:26:40;;;;;;;1.98;1.10;;;;;;;16.66;83.68;100850.81;4988737;28;20074;-78
2022/09/10 06:29:06;;;;;;;1.20;1.10;;;;;;;16.65;82.81;100857.91;5012528;28;20244;-77
2022/09/10 06:31:33;;;;;;;1.27;1.17;;;;;;;16.65;81.86;100857.06;5015640;28;20147;-78
2022/09/10 06:34:00;;;;;;;1.73;1.63;;;;;;;16.67;81.91;100863.94;5004983;28;20033;-78
2022/09/10 06:36:27;;;;;;;1.83;1.20;;;;;;;16.66;81.99;100864.91;5001504;28;20062;-78
2022/09/10 06:38:56;;;;;;;1.67;0.93;;;;;;;16.67;81.67;100876.31;4986023;28;20034;-77
2022/09/10 06:41:23;;;;;;;1.58;1.20;;;;;;;16.68;81.76;100872.72;4981940;28;20049;-78
2022/09/10 06:43:49;;;;;;;0.88;0.80;;;;;;;16.69;82.20;100877.91;4974959;28;20038;-78
2022/09/10 06:46:16;;;;;;;1.20;0.90;;;;;;;16.68;81.68;100878.00;4994130;28;20249;-77
2022/09/10 06:48:42;;;;;;;1.67;1.00;;;;;;;16.70;81.55;100876.13;5000881;28;20114;-78
2022/09/10 06:51:11;;;;;;;2.40;1.10;;;;;;;16.70;81.56;100878.78;4993945;28;20034;-78
2022/09/10 06:53:37;;;;;;;0.85;0.85;;;;;;;16.72;81.62;100883.94;5010820;28;20221;-78
2022/09/10 06:56:04;;;;;;;2.53;1.10;;;;;;;16.71;81.46;100891.03;4996234;28;20120;-78
2022/09/10 06:58:34;;;;;;;1.30;1.13;;;;;;;16.71;81.25;100891.03;4975243;28;20340;-77
2022/09/10 07:01:10;;;;;;;2.85;0.98;;;;;;;16.72;81.06;100889.22;4997070;28;20060;-77
2022/09/10 07:03:36;;;;;;;1.88;0.93;;;;;;;16.72;81.00;100891.88;4995621;28;20056;-78
2022/09/10 07:06:03;;;;;;;0.90;0.90;;;;;;;16.73;81.19;100899.72;5020832;28;20367;-78
2022/09/10 07:08:30;;;;;;;1.35;0.90;;;;;;;16.74;81.23;100898.78;4996932;28;20029;-78
2022/09/10 07:11:03;;;;;;;1.33;0.90;;;;;;;16.76;81.47;100904.81;4977781;28;20121;-78
2022/09/10 07:13:29;;;;;;;1.63;0.88;;;;;;;16.76;81.24;100896.03;5003096;28;20038;-78
2022/09/10 07:15:54;;;;;;;1.45;1.00;;;;;;;16.77;81.48;100901.22;5000333;28;20207;-78
2022/09/10 07:18:20;;;;;;;1.88;0.70;;;;;;;16.78;81.67;100902.91;5000103;28;20356;-78
2022/09/10 07:20:46;;;;;;;0.75;0.68;;;;;;;16.80;81.87;100908.09;5005706;28;20044;-78
2022/09/10 07:23:14;;;;;;;0.85;0.60;;;;;;;16.80;82.49;100919.53;5036521;28;20292;-78
2022/09/10 07:25:40;;;;;;;0.65;0.65;;;;;;;16.80;82.17;100913.41;5000937;28;20044;-78
2022/09/10 07:28:12;;;;;;;1.10;0.65;;;;;;;16.79;81.72;100917.84;5015421;28;20039;-78
2022/09/10 07:30:38;;;;;;;0.60;0.60;;;;;;;16.81;82.29;100923.88;5015907;28;20049;-78
2022/09/10 07:33:04;;;;;;;0.70;0.55;;;;;;;16.82;82.53;100916.78;5016784;28;20100;-79
2022/09/10 07:35:32;;;;;;;0.90;0.60;;;;;;;16.84;82.54;100928.13;4998209;28;20029;-78
2022/09/10 07:37:59;;;;;;;1.03;0.70;;;;;;;16.83;82.39;100929.94;5029724;28;20043;-78
2022/09/10 07:40:26;;;;;;;1.35;0.70;;;;;;;16.85;82.16;100928.03;5034859;28;20202;-78
2022/09/10 07:42:54;;;;;;;1.25;0.93;;;;;;;16.85;82.01;100930.69;5031244;28;20038;-78
2022/09/10 07:45:20;;;;;;;2.40;0.98;;;;;;;16.87;82.61;100931.44;4992196;28;20049;-79
2022/09/10 07:47:46;;;;;;;0.88;0.60;;;;;;;16.88;82.84;100926.97;4999006;28;20120;-79
2022/09/10 07:50:12;;;;;;;0.63;0.57;;;;;;;16.91;83.41;100942.66;5003458;28;20037;-78
2022/09/10 07:52:37;;;;;;;5.47;0.93;;;;;;;16.94;85.21;100938.97;5004350;28;20253;-79
2022/09/10 07:55:03;;;;;;;2.00;0.40;;;;;;;16.96;86.24;100940.56;5010045;28;20198;-79
2022/09/10 07:57:30;;;;;;;2.78;0.60;;;;;;;16.99;87.11;100947.44;5002931;28;20088;-79
2022/09/10 07:59:55;;;;;;;4.18;1.08;;;;;;;16.99;87.36;100947.44;4980973;28;20042;-79
2022/09/10 08:02:23;;;;;;;3.10;1.75;;;;;;;17.02;88.14;100950.72;5033222;28;20285;-78
2022/09/10 08:04:49;;;;;;;8.40;2.73;;;;;;;17.04;88.26;100970.00;5016542;28;20045;-79
2022/09/10 08:07:16;;;;;;;4.82;3.70;;;;;;;17.04;88.73;100966.50;5043476;28;20034;-79
2022/09/10 08:09:42;;;;;;;4.88;4.15;;;;;;;17.04;88.76;100975.28;5018324;28;20028;-78
2022/09/10 08:12:07;;;;;;;5.30;3.75;;;;;;;17.03;88.57;100986.00;5000500;28;20301;-79
2022/09/10 08:14:33;;;;;;;6.85;5.00;;;;;;;17.03;88.54;100988.63;5026464;28;20072;-79
2022/09/10 08:17:00;;;;;;;5.72;4.53;;;;;;;17.04;88.52;100998.25;5013516;28;20022;-79
2022/09/10 08:19:25;;;;;;;6.72;5.65;;;;;;;17.04;88.69;100999.09;4996841;28;20360;-78
2022/09/10 08:21:51;;;;;;;7.72;6.80;;;;;;;17.04;88.87;101007.03;5009871;28;20048;-79
2022/09/10 08:24:16;;;;;;;8.70;6.97;;;;;;;17.05;88.84;101016.69;5038511;28;20037;-79
2022/09/10 08:26:41;;;;;;;8.80;6.88;;;;;;;17.05;88.86;101021.13;4983507;28;20329;-79
2022/09/10 08:29:07;;;;;;;8.25;7.35;;;;;;;17.06;88.92;101031.63;5021293;28;20101;-79
2022/09/10 08:31:33;;;;;;;7.82;7.03;;;;;;;17.06;88.54;101028.97;5033132;28;20029;-78
2022/09/10 08:33:59;;;;;;;9.75;7.57;;;;;;;17.08;88.58;101032.38;5006419;28;20033;-79
2022/09/10 08:36:25;;;;;;;8.13;6.88;;;;;;;17.08;88.43;101035.00;5016493;28;20132;-78
2022/09/10 08:38:51;;;;;;;12.10;7.50;;;;;;;17.10;88.73;101041.97;4973000;28;20270;-78
2022/09/10 08:41:40;;;;;;;6.45;5.85;;;;;;;17.10;88.77;101042.84;5006309;28;20033;-78
2022/09/10 08:44:22;;;;;;;9.43;7.63;;;;;;;17.12;89.12;101051.53;5033687;28;20391;-78
2022/09/10 08:46:58;;;;;;;10.95;6.53;;;;;;;17.13;89.00;101050.56;5004051;28;20028;-79
2022/09/10 08:49:51;;;;;;;8.55;7.22;;;;;;;17.14;89.03;101059.38;5004986;28;20037;-79
2022/09/10 08:52:27;;;;;;;6.88;6.22;;;;;;;17.13;88.59;101061.16;5018867;28;20025;-79
2022/09/10 08:54:53;;;;;;;6.65;6.15;;;;;;;17.14;88.67;101067.31;5005448;28;20328;-79
2022/09/10 08:57:27;;;;;;;6.95;6.18;;;;;;;17.14;88.65;101065.50;5020716;28;20060;-78
2022/09/10 08:59:55;;;;;;;6.78;6.20;;;;;;;17.14;88.39;101069.97;5031227;28;20213;-78
2022/09/10 09:02:44;;;;;;;9.90;6.95;;;;;;;17.15;88.32;101061.06;5001025;28;20082;-78
2022/09/10 09:05:19;;;;;;;7.43;6.43;;;;;;;17.16;88.35;101068.06;5026212;28;20110;-78
2022/09/10 09:07:47;;;;;;;6.18;5.78;;;;;;;17.16;88.48;101076.84;5023707;28;20051;-78
2022/09/10 09:10:24;;;;;;;7.37;6.57;;;;;;;17.17;88.47;101072.38;5003514;28;20040;-78
2022/09/10 09:13:25;;;;;;;6.80;6.20;;;;;;;17.17;88.30;101070.63;5015933;28;20063;-78
2022/09/10 09:16:11;;;;;;;5.63;5.22;;;;;;;17.18;88.10;101072.28;5027571;28;20129;-78
2022/09/10 09:18:57;;;;;;;6.68;5.78;;;;;;;17.20;88.32;101080.16;5034287;28;20233;-78
2022/09/10 09:21:49;;;;;;;5.65;5.20;;;;;;;17.21;87.93;101087.16;4999325;28;20064;-78
2022/09/10 09:24:38;;;;;;;6.70;6.07;;;;;;;17.21;87.88;101098.56;4997062;28;20037;-78
2022/09/10 09:27:09;;;;;;;6.00;5.40;;;;;;;17.21;87.69;101103.03;4991224;28;20361;-78
2022/09/10 09:29:50;;;;;;;6.95;6.22;;;;;;;17.21;87.44;101097.72;5001593;28;20264;-78
2022/09/10 09:32:19;;;;;;;8.45;5.65;;;;;;;17.20;86.83;101096.03;4980736;28;20230;-79
2022/09/10 09:34:50;;;;;;;;;;;;;;;17.22;87.01;101113.50;5019401;28;20442;-78
2022/09/10 09:37:23;;;;;;;6.00;4.88;;;;;;;17.23;86.95;101098.47;5001884;28;20183;-78
2022/09/10 09:40:05;;;;;;;5.13;4.63;;;;;;;17.24;86.68;101108.09;4999377;28;20064;-78
2022/09/10 09:42:41;;;;;;;8.40;4.88;;;;;;;17.25;86.63;101107.16;5011994;28;20030;-78
2022/09/10 09:45:13;;;;;;;5.13;3.75;;;;;;;17.26;86.39;101109.72;5009420;28;20061;-78
2022/09/10 09:47:38;;;;;;;4.60;4.03;;;;;;;17.27;86.63;101116.69;5000587;28;20124;-78
2022/09/10 09:50:04;;;;;;;3.88;3.58;;;;;;;17.30;86.24;101117.44;4991922;28;20367;-78
2022/09/10 09:52:31;;;;;;;4.35;3.60;;;;;;;17.30;86.24;101128.03;4967867;28;20333;-78
2022/09/10 09:55:06;;;;;;;4.80;3.58;;;;;;;17.33;85.92;101125.19;5007727;28;20407;-79
2022/09/10 09:57:32;;;;;;;3.03;2.67;;;;;;;17.34;85.61;101129.56;4993458;28;20030;-78
2022/09/10 10:00:30;;;;;;;3.15;2.85;;;;;;;17.36;85.79;101127.66;4997922;28;20043;-78
2022/09/10 10:03:04;;;;;;;2.80;2.60;;;;;;;17.36;86.07;101125.84;5009415;28;20359;-78
2022/09/10 10:05:30;;;;;;;3.58;3.28;;;;;;;17.38;86.08;101136.34;5013129;28;20034;-78
2022/09/10 10:07:56;;;;;;;5.95;2.97;;;;;;;17.40;85.91;101135.28;4980172;28;20448;-78
2022/09/10 10:10:24;;;;;;;3.17;2.80;;;;;;;17.42;85.95;101132.53;4981143;28;20040;-78
2022/09/10 10:12:51;;;;;;;2.80;2.60;;;;;;;17.44;85.52;101128.84;5014087;28;20050;-78
2022/09/10 10:15:37;;;;;;;3.05;2.85;;;;;;;17.48;85.16;101133.94;5012019;28;20342;-78
2022/09/10 10:18:21;;;;;;;3.33;3.03;;;;;;;17.48;85.05;101133.94;5011326;28;20332;-78
2022/09/10 10:20:48;;;;;;;3.17;2.75;;;;;;;17.50;84.82;101129.38;5005349;28;20066;-78
2022/09/10 10:23:39;;;;;;;2.78;2.58;;;;;;;17.51;85.04;101142.53;5014426;28;20034;-78
2022/09/10 10:26:30;;;;;;;4.60;2.80;;;;;;;17.53;85.02;101143.28;4992722;28;20337;-78
2022/09/10 10:29:05;;;;;;;4.07;2.10;;;;;;;17.55;85.35;101148.47;4994678;28;20030;-78
2022/09/10 10:31:45;;;;;;;2.90;2.70;;;;;;;17.56;85.24;101152.84;5012861;28;20033;-78
2022/09/10 10:34:14;;;;;;;4.43;3.30;;;;;;;17.59;85.65;101156.13;5013183;28;20252;-78
2022/09/10 10:37:07;;;;;;;3.83;3.30;;;;;;;17.61;85.68;101159.53;4990192;28;20025;-78
2022/09/10 10:39:42;;;;;;;5.63;3.40;;;;;;;17.66;85.70;101161.84;4995368;28;20045;-78
2022/09/10 10:42:32;;;;;;;5.13;4.05;;;;;;;17.70;85.39;101167.81;5010751;28;20288;-78
2022/09/10 10:45:36;;;;;;;6.13;4.30;;;;;;;17.70;85.33;101171.31;5014705;28;20241;-78
2022/09/10 10:48:12;;;;;;;4.38;4.03;;;;;;;17.72;84.94;101172.06;4970023;28;20033;-78
2022/09/10 10:50:58;;;;;;;6.20;4.32;;;;;;;17.73;85.02;101180.84;4995139;28;20056;-78
2022/09/10 10:53:30;;;;;;;5.28;4.78;;;;;;;17.72;84.69;101180.00;4999130;28;20022;-78
2022/09/10 10:55:59;;;;;;;4.90;4.50;;;;;;;17.72;84.96;101181.78;5013126;28;20037;-78
2022/09/10 10:58:38;;;;;;;5.40;4.93;;;;;;;17.71;84.81;101188.91;5009907;28;20648;-78
2022/09/10 11:01:14;;;;;;;;;;;;;;;17.71;85.48;101186.25;4989762;28;20396;-78
2022/09/10 11:03:45;;;;;;;6.85;4.88;;;;;;;17.73;85.39;101191.44;5004449;28;19921;-78
2022/09/10 11:06:27;;;;;;;6.88;4.60;;;;;;;17.75;85.00;101189.53;4991660;28;20041;-78
2022/09/10 11:09:06;;;;;;;5.93;4.25;;;;;;;17.79;85.79;101196.34;4978773;28;20030;-78
2022/09/10 11:11:56;;;;;;;4.63;4.15;;;;;;;17.82;85.62;101201.44;4978376;28;20061;-78
2022/09/10 11:14:34;;;;;;;4.47;3.90;;;;;;;17.86;84.99;101197.66;4992662;28;20044;-78
2022/09/10 11:17:21;;;;;;;4.40;4.00;;;;;;;17.87;84.43;101204.69;4987564;28;20026;-78
2022/09/10 11:19:59;;;;;;;4.45;4.10;;;;;;;17.89;84.45;101189.53;4996740;28;20053;-78
2022/09/10 11:22:32;;;;;;;3.38;2.85;;;;;;;17.93;83.96;101200.78;5029919;28;20057;-79
2022/09/10 11:25:25;;;;;;;3.83;3.47;;;;;;;17.96;84.79;101197.94;5031406;28;20061;-78
2022/09/10 11:27:55;;;;;;;2.55;2.42;;;;;;;17.99;84.32;101203.88;5007121;28;20029;-78
2022/09/10 11:30:21;;;;;;;3.30;3.00;;;;;;;18.02;84.32;101200.16;5009304;28;20512;-78
2022/09/10 11:33:11;;;;;;;4.40;2.97;;;;;;;18.05;83.93;101207.91;5011753;28;20243;-78
2022/09/10 11:35:42;;;;;;;4.55;3.28;;;;;;;18.08;84.05;101212.16;5036987;28;20076;-78
2022/09/10 11:38:21;;;;;;;4.80;3.20;;;;;;;18.09;83.67;101212.06;5038369;28;20035;-78
2022/09/10 11:40:55;;;;;;;3.38;2.92;;;;;;;18.10;83.76;101216.41;5033080;28;20317;-78
2022/09/10 11:43:38;;;;;;;4.10;3.70;;;;;;;18.10;83.45;101208.47;5010623;28;20041;-78